SHMÚ vydal meteorologické výstrahy na Prízemný mráz Zobraziť výstrahy

TAF

Letisková predpoveď TAF

Informácie o správe TAF

21.09.2020 - 05:00 UTC

TAF LZIB 210500Z 2106/2206 03006KT CAVOK
    BECMG 2108/2110 13012KT
    BECMG 2118/2120 06005KT=
TAF LZKZ 210500Z 2106/2206 35003KT CAVOK
    BECMG 2110/2112 20008KT
    BECMG 2117/2119 34002KT=
TAF LZTT 210500Z 2106/2206 27005KT CAVOK
    TEMPO 2109/2116 07010KT
    TEMPO 2201/2206 9999 MIFG NSC=

21.09.2020 - 05:00 UTC

TAF LZSL 210500Z 2106/2115 VRB02KT CAVOK=
TAF LZPP 210500Z 2106/2115 01007KT CAVOK
    BECMG 2109/2111 15011KT=
TAF LZZI 210500Z 2106/2115 08005KT CAVOK=

21.09.2020 - 02:00 UTC

TAF LZSL 210200Z 2103/2112 VRB02KT CAVOK
    PROB30 TEMPO 2103/2106 4000 BCFG FEW001=
TAF LZZI 210200Z 2103/2112 10004KT CAVOK
    PROB40 TEMPO 2103/2106 2000 BCFG SCT001=

skok na menu ↑


skok na začiatok stránky ↑